Skip Navigation LinksHome page > Weather > Current weather Skip Navigation Links

Current Weather

Kansas City Intl, Kansas City, Mo.

For information only: do not use for flight planning or navigation.
Latest weather
Observation time Sunday, May 26, 2019 9:53 AM CDT
Local time Sunday, May 26, 2019 10:54 AM CDT
Flight conditions Visual Meteorological Conditions
Winds
Wind direction South (180°)
Wind speed 6 mph
Visibility 10 mi.
Sky condition
Ceiling 16,000 ft. broken clouds
Cloud layer scattered clouds 8,500 ft.
Cloud layer broken clouds 16,000 ft.
Temperature 70°F
Dewpoint 66°F
Altimeter 30.08 in.Hg
Pressure change last 3 hours-0.04 in.Hg
Pressure rising, then falling
Derived measurements
Relative humidity 87%
Density altitude 1854 ft.
Sea-level pressure 30.06 in.Hg
Remarks
System requires maintenance.
Automated weather observing station with precipitation discriminator.
METAR KMCI 261453Z 18005KT 10SM SCT085 BKN160 21/19 A3008 RMK AO2 SLP179 T02110189 50014 $

Settings

Location code

InnerDrive.Weather 4.0.6770.0 Release CLR 4.0.30319.42000
Copyright ©2018 Inner Drive Technology. All rights reserved. Portions Copyright ©1986-2018 David Braverman.

Find weather

Site navigation


Skip Navigation Links

Place info

Page info

PayPal - The safer, easier way to pay online!

Return home.

Copyright ©2019 Inner Drive Technology. Purveyors of fine, hand-crafted computer software. Page printed 2019-05-26T15:54:14 UTC.